Time;durP1;ratioP1;P1;durP2;ratioP2;P2;SDS_P1;SDS_P2;PMS_P1;PMS_P2;Temp;Humidity;BMP_temperature;BMP_pressure;BME280_temperature;BME280_humidity;BME280_pressure;Samples;Min_cycle;Max_cycle;Signal;HPM_P1;HPM_P2
2021/10/31 00:00:16;;;;;;;;;;;;;;;;;;1038421;28;1083;-22
2021/10/31 00:00:46;;;;;;;;;;;;;;;;;;1034872;28;1288;-20
2021/10/31 00:01:17;;;;;;;;;;;;;;;;;;1038242;28;1245;-20
2021/10/31 00:01:47;;;;;;;;;;;;;;;;;;1038355;28;1248;-21
2021/10/31 00:02:18;;;;;;;;;;;;;;;;;;1038299;28;1010;-19
2021/10/31 00:02:48;;;;;;;;;;;;;;;;;;1038492;28;1347;-20
2021/10/31 00:03:19;;;;;;;;;;;;;;;;;;1034417;28;1548;-20
2021/10/31 00:03:49;;;;;;;;;;;;;;;;;;1038548;28;1005;-19
2021/10/31 00:04:20;;;;;;;;;;;;;;;;;;1035140;28;938;-20
2021/10/31 00:04:50;;;;;;;;;;;;;;;;;;1034844;28;1632;-20
2021/10/31 00:05:20;;;;;;;;;;;;;;;;;;1034949;28;963;-21
2021/10/31 00:05:51;;;;;;;;;;;;;;;;;;1035316;28;1048;-22
2021/10/31 00:06:21;;;;;;;;;;;;;;;;;;1034535;28;1319;-20
2021/10/31 00:06:51;;;;;;;;;;;;;;;;;;1034714;28;1282;-19
2021/10/31 00:07:22;;;;;;;;;;;;;;;;;;1034707;28;1161;-20
2021/10/31 00:07:52;;;;;;;;;;;;;;;;;;1034786;28;886;-19
2021/10/31 00:08:26;;;;;;;;;;;;;;;;;;1034401;28;1104;-19
2021/10/31 00:08:58;;;;;;;;;;;;;;;;;;1038094;28;1452;-20
2021/10/31 00:09:29;;;;;;;;;;;;;;;;;;1038064;28;1509;-20
2021/10/31 00:09:59;;;;;;;;;;;;;;;;;;1037972;28;1153;-20
2021/10/31 00:10:30;;;;;;;;;;;;;;;;;;1034229;28;1967;-20
2021/10/31 00:11:01;;;;;;;;;;;;;;;;;;1038615;28;1084;-20
2021/10/31 00:11:32;;;;;;;;;;;;;;;;;;1038172;28;1395;-20
2021/10/31 00:12:04;;;;;;;;;;;;;;;;;;1038291;28;1042;-19
2021/10/31 00:12:35;;;;;;;;;;;;;;;;;;1037863;28;1185;-20
2021/10/31 00:13:05;;;;;;;;;;;;;;;;;;1038385;28;1067;-19
2021/10/31 00:13:36;;;;;;;;;;;;;;;;;;1038091;28;1005;-19
2021/10/31 00:14:06;;;;;;;;;;;;;;;;;;1034572;28;1026;-19
2021/10/31 00:14:37;;;;;;;;;;;;;;;;;;1034172;28;831;-20
2021/10/31 00:15:09;;;;;;;;;;;;;;;;;;1038667;28;898;-20
2021/10/31 00:15:39;;;;;;;;;;;;;;;;;;1041746;28;1371;-19
2021/10/31 00:16:09;;;;;;;;;;;;;;;;;;1042565;28;1233;-20
2021/10/31 00:16:40;;;;;;;;;;;;;;;;;;1042139;28;1373;-21
2021/10/31 00:17:10;;;;;;;;;;;;;;;;;;1042386;28;1367;-19
2021/10/31 00:17:41;;;;;;;;;;;;;;;;;;1037843;28;1355;-19
2021/10/31 00:18:12;;;;;;;;;;;;;;;;;;1038330;28;1051;-19
2021/10/31 00:18:43;;;;;;;;;;;;;;;;;;1038250;28;1113;-19
2021/10/31 00:19:14;;;;;;;;;;;;;;;;;;1038021;28;1588;-18
2021/10/31 00:19:45;;;;;;;;;;;;;;;;;;1038036;28;1349;-20
2021/10/31 00:20:15;;;;;;;;;;;;;;;;;;1034337;28;975;-18
2021/10/31 00:20:45;;;;;;;;;;;;;;;;;;1033898;28;1420;-20
2021/10/31 00:21:16;;;;;;;;;;;;;;;;;;1038393;28;1111;-20
2021/10/31 00:21:46;;;;;;;;;;;;;;;;;;1038447;28;1076;-20
2021/10/31 00:22:17;;;;;;;;;;;;;;;;;;1038389;28;1082;-20
2021/10/31 00:22:47;;;;;;;;;;;;;;;;;;1038035;28;1177;-18
2021/10/31 00:23:18;;;;;;;;;;;;;;;;;;1034792;28;1314;-21
2021/10/31 00:23:49;;;;;;;;;;;;;;;;;;1038158;28;1129;-19
2021/10/31 00:24:20;;;;;;;;;;;;;;;;;;1038525;28;966;-21
2021/10/31 00:24:50;;;;;;;;;;;;;;;;;;1037521;28;1454;-20
2021/10/31 00:25:20;;;;;;;;;;;;;;;;;;1038309;28;1054;-21
2021/10/31 00:25:51;;;;;;;;;;;;;;;;;;1038305;28;1039;-20
2021/10/31 00:26:22;;;;;;;;;;;;;;;;;;1038660;28;1046;-19
2021/10/31 00:26:52;;;;;;;;;;;;;;;;;;1038287;28;982;-19
2021/10/31 00:27:23;;;;;;;;;;;;;;;;;;1034670;28;1397;-20
2021/10/31 00:27:54;;;;;;;;;;;;;;;;;;1037973;28;1286;-20
2021/10/31 00:28:25;;;;;;;;;;;;;;;;;;1038142;28;1509;-20
2021/10/31 00:28:55;;;;;;;;;;;;;;;;;;1038122;28;1205;-19
2021/10/31 00:29:26;;;;;;;;;;;;;;;;;;1038119;28;1098;-19
2021/10/31 00:29:56;;;;;;;;;;;;;;;;;;1034349;28;898;-20
2021/10/31 00:30:27;;;;;;;;;;;;;;;;;;1038294;28;1906;-19
2021/10/31 00:30:58;;;;;;;;;;;;;;;;;;1038283;28;1094;-20
2021/10/31 00:31:28;;;;;;;;;;;;;;;;;;1038297;28;1038;-20
2021/10/31 00:31:58;;;;;;;;;;;;;;;;;;1038221;28;900;-20
2021/10/31 00:32:30;;;;;;;;;;;;;;;;;;1049709;28;1702;-19
2021/10/31 00:33:00;;;;;;;;;;;;;;;;;;1046288;28;1407;-22
2021/10/31 00:33:32;;;;;;;;;;;;;;;;;;1041940;28;1354;-20
2021/10/31 00:34:02;;;;;;;;;;;;;;;;;;1037535;28;1387;-20
2021/10/31 00:34:32;;;;;;;;;;;;;;;;;;1034839;28;1001;-23
2021/10/31 00:35:04;;;;;;;;;;;;;;;;;;1035110;28;1215;-20
2021/10/31 00:35:35;;;;;;;;;;;;;;;;;;1034736;28;1275;-21
2021/10/31 00:36:06;;;;;;;;;;;;;;;;;;1034984;28;1070;-19
2021/10/31 00:36:37;;;;;;;;;;;;;;;;;;1037745;28;1408;-21
2021/10/31 00:37:07;;;;;;;;;;;;;;;;;;1038312;28;1262;-21
2021/10/31 00:37:38;;;;;;;;;;;;;;;;;;1037966;28;1225;-19
2021/10/31 00:38:08;;;;;;;;;;;;;;;;;;1037535;28;1596;-20
2021/10/31 00:38:38;;;;;;;;;;;;;;;;;;1033842;28;1381;-20
2021/10/31 00:39:09;;;;;;;;;;;;;;;;;;1034304;28;1120;-24
2021/10/31 00:39:39;;;;;;;;;;;;;;;;;;1030808;28;1036;-20
2021/10/31 00:40:12;;;;;;;;;;;;;;;;;;1034197;28;1139;-20
2021/10/31 00:40:44;;;;;;;;;;;;;;;;;;1033770;28;1458;-21
2021/10/31 00:41:15;;;;;;;;;;;;;;;;;;1034220;28;1174;-21
2021/10/31 00:41:45;;;;;;;;;;;;;;;;;;1034084;28;1010;-21
2021/10/31 00:42:16;;;;;;;;;;;;;;;;;;1033913;28;1121;-19
2021/10/31 00:42:46;;;;;;;;;;;;;;;;;;1030131;28;1044;-20
2021/10/31 00:43:17;;;;;;;;;;;;;;;;;;1030300;28;845;-20
2021/10/31 00:43:47;;;;;;;;;;;;;;;;;;1034111;28;1218;-18
2021/10/31 00:44:18;;;;;;;;;;;;;;;;;;1034169;28;1009;-21
2021/10/31 00:44:48;;;;;;;;;;;;;;;;;;1034244;28;973;-20
2021/10/31 00:45:19;;;;;;;;;;;;;;;;;;1034150;28;1748;-19
2021/10/31 00:45:49;;;;;;;;;;;;;;;;;;1034132;28;978;-21
2021/10/31 00:46:20;;;;;;;;;;;;;;;;;;1034460;28;1159;-19
2021/10/31 00:46:50;;;;;;;;;;;;;;;;;;1034218;28;926;-20
2021/10/31 00:47:20;;;;;;;;;;;;;;;;;;1030990;28;969;-19
2021/10/31 00:47:52;;;;;;;;;;;;;;;;;;1030821;28;875;-20
2021/10/31 00:48:22;;;;;;;;;;;;;;;;;;1030888;28;1630;-20
2021/10/31 00:48:53;;;;;;;;;;;;;;;;;;1030727;28;1270;-20
2021/10/31 00:49:23;;;;;;;;;;;;;;;;;;1030930;28;1131;-21
2021/10/31 00:49:54;;;;;;;;;;;;;;;;;;1030349;28;1457;-19
2021/10/31 00:50:24;;;;;;;;;;;;;;;;;;1038057;28;1898;-20
2021/10/31 00:50:55;;;;;;;;;;;;;;;;;;1038141;28;1291;-19
2021/10/31 00:51:26;;;;;;;;;;;;;;;;;;1038204;28;1015;-19
2021/10/31 00:51:57;;;;;;;;;;;;;;;;;;1037932;28;1038;-18
2021/10/31 00:52:28;;;;;;;;;;;;;;;;;;1030692;28;1285;-19
2021/10/31 00:52:59;;;;;;;;;;;;;;;;;;1030735;28;1096;-19
2021/10/31 00:53:29;;;;;;;;;;;;;;;;;;1030942;28;952;-19
2021/10/31 00:54:02;;;;;;;;;;;;;;;;;;1030679;28;1460;-19
2021/10/31 00:54:33;;;;;;;;;;;;;;;;;;1030779;28;954;-20
2021/10/31 00:55:04;;;;;;;;;;;;;;;;;;1030618;28;1415;-19
2021/10/31 00:55:35;;;;;;;;;;;;;;;;;;1030926;28;1132;-20
2021/10/31 00:56:06;;;;;;;;;;;;;;;;;;1034155;28;1023;-20
2021/10/31 00:56:36;;;;;;;;;;;;;;;;;;1033382;28;1405;-20
2021/10/31 00:57:07;;;;;;;;;;;;;;;;;;1034101;28;1039;-22
2021/10/31 00:57:38;;;;;;;;;;;;;;;;;;1021936;29;1814;-20
2021/10/31 00:58:10;;;;;;;;;;;;;;;;;;1026068;28;1061;-20
2021/10/31 00:58:41;;;;;;;;;;;;;;;;;;1025944;28;1053;-19
2021/10/31 00:59:12;;;;;;;;;;;;;;;;;;1016856;29;1719;-20
2021/10/31 00:59:43;;;;;;;;;;;;;;;;;;1025100;28;1096;-20
2021/10/31 01:00:14;;;;;;;;;;;;;;;;;;1017817;28;1515;-21
2021/10/31 01:00:47;;;;;;;;;;;;;;;;;;1029856;28;1161;-21
2021/10/31 01:01:19;;;;;;;;;;;;;;;;;;1028954;28;1031;-20
2021/10/31 01:01:51;;;;;;;;;;;;;;;;;;1021874;29;1231;-21
2021/10/31 01:02:22;;;;;;;;;;;;;;;;;;1024912;28;1325;-21
2021/10/31 01:02:52;;;;;;;;;;;;;;;;;;1018814;28;1390;-21
2021/10/31 01:03:23;;;;;;;;;;;;;;;;;;1026112;28;1179;-20
2021/10/31 01:03:56;;;;;;;;;;;;;;;;;;1021751;29;1044;-20
2021/10/31 01:04:27;;;;;;;;;;;;;;;;;;1017883;28;1805;-21
2021/10/31 01:04:59;;;;;;;;;;;;;;;;;;1025786;28;1207;-20
2021/10/31 01:05:32;;;;;;;;;;;;;;;;;;1026755;28;1140;-20
2021/10/31 01:06:23;;;;;;;;;;;;;;;;;;1033763;28;1412;-20
2021/10/31 01:06:57;;;;;;;;;;;;;;;;;;1033852;28;1288;-18
2021/10/31 01:07:34;;;;;;;;;;;;;;;;;;1034207;28;1107;-19
2021/10/31 01:08:15;;;;;;;;;;;;;;;;;;1030995;28;958;-19
2021/10/31 01:08:50;;;;;;;;;;;;;;;;;;1030601;28;1503;-20
2021/10/31 01:09:39;;;;;;;;;;;;;;;;;;1037959;28;1163;-21
2021/10/31 01:10:32;;;;;;;;;;;;;;;;;;1037610;28;1313;-20
2021/10/31 01:11:12;;;;;;;;;;;;;;;;;;1036910;28;1113;-20
2021/10/31 01:11:42;;;;;;;;;;;;;;;;;;1034205;28;1320;-20
2021/10/31 01:12:20;;;;;;;;;;;;;;;;;;1030724;28;1008;-20
2021/10/31 01:13:21;;;;;;;;;;;;;;;;;;1030709;28;1029;-20
2021/10/31 01:14:09;;;;;;;;;;;;;;;;;;1037746;28;1718;-20
2021/10/31 01:14:46;;;;;;;;;;;;;;;;;;1038316;28;1006;-19
2021/10/31 01:15:25;;;;;;;;;;;;;;;;;;1037589;28;1186;-19
2021/10/31 01:16:05;;;;;;;;;;;;;;;;;;1030030;28;1079;-20
2021/10/31 01:16:46;;;;;;;;;;;;;;;;;;1030107;28;1513;-20
2021/10/31 01:17:33;;;;;;;;;;;;;;;;;;1033719;28;1151;-20
2021/10/31 01:18:27;;;;;;;;;;;;;;;;;;1038391;28;1093;-20
2021/10/31 01:19:16;;;;;;;;;;;;;;;;;;1033210;28;1092;-19
2021/10/31 01:20:05;;;;;;;;;;;;;;;;;;1030761;28;1572;-20
2021/10/31 01:20:36;;;;;;;;;;;;;;;;;;1030296;28;1279;-22
2021/10/31 01:21:17;;;;;;;;;;;;;;;;;;1034084;28;1526;-21
2021/10/31 01:21:56;;;;;;;;;;;;;;;;;;1033651;28;1467;-20
2021/10/31 01:22:29;;;;;;;;;;;;;;;;;;1034159;28;1233;-20
2021/10/31 01:23:05;;;;;;;;;;;;;;;;;;1031652;28;988;-20
2021/10/31 01:23:55;;;;;;;;;;;;;;;;;;1030283;28;946;-21
2021/10/31 01:24:26;;;;;;;;;;;;;;;;;;1033813;28;1759;-20
2021/10/31 01:25:03;;;;;;;;;;;;;;;;;;1034189;28;1009;-20
2021/10/31 01:25:38;;;;;;;;;;;;;;;;;;1034094;28;1097;-20
2021/10/31 01:26:28;;;;;;;;;;;;;;;;;;1033955;28;1104;-19
2021/10/31 01:27:06;;;;;;;;;;;;;;;;;;1033957;28;1051;-19
2021/10/31 01:28:00;;;;;;;;;;;;;;;;;;1029945;28;954;-20
2021/10/31 01:28:49;;;;;;;;;;;;;;;;;;1025933;28;907;-20
2021/10/31 01:29:39;;;;;;;;;;;;;;;;;;1027386;28;885;-20
2021/10/31 01:30:32;;;;;;;;;;;;;;;;;;1029732;28;1477;-20
2021/10/31 01:31:02;;;;;;;;;;;;;;;;;;1035027;28;1602;-21
2021/10/31 01:31:35;;;;;;;;;;;;;;;;;;1030748;28;1100;-20
2021/10/31 01:32:06;;;;;;;;;;;;;;;;;;1030901;28;910;-20
2021/10/31 01:32:36;;;;;;;;;;;;;;;;;;1030721;28;866;-20
2021/10/31 01:33:45;;;;;;;;;;;;;;;;;;1030829;28;977;-20
2021/10/31 01:34:34;;;;;;;;;;;;;;;;;;1038145;28;1205;-19
2021/10/31 01:35:12;;;;;;;;;;;;;;;;;;1038138;28;1286;-20
2021/10/31 01:35:51;;;;;;;;;;;;;;;;;;1038239;28;1050;-20
2021/10/31 01:36:27;;;;;;;;;;;;;;;;;;1034025;28;990;-19
2021/10/31 01:37:05;;;;;;;;;;;;;;;;;;1033906;28;1096;-20
2021/10/31 01:37:48;;;;;;;;;;;;;;;;;;1036026;28;1046;-21
2021/10/31 01:38:19;;;;;;;;;;;;;;;;;;1038256;28;988;-20
2021/10/31 01:38:55;;;;;;;;;;;;;;;;;;1038153;28;922;-20
2021/10/31 01:39:45;;;;;;;;;;;;;;;;;;1037947;28;954;-21
2021/10/31 01:40:33;;;;;;;;;;;;;;;;;;1030209;28;1001;-19
2021/10/31 01:41:10;;;;;;;;;;;;;;;;;;1025662;28;1460;-20
2021/10/31 01:41:59;;;;;;;;;;;;;;;;;;1026110;28;1338;-20
2021/10/31 01:42:47;;;;;;;;;;;;;;;;;;1037747;28;1398;-20
2021/10/31 01:43:18;;;;;;;;;;;;;;;;;;1038212;28;1177;-20
2021/10/31 01:43:53;;;;;;;;;;;;;;;;;;1037843;28;1095;-20
2021/10/31 01:44:42;;;;;;;;;;;;;;;;;;1037394;28;1461;-20
2021/10/31 01:45:42;;;;;;;;;;;;;;;;;;1035459;28;983;-20
2021/10/31 01:46:15;;;;;;;;;;;;;;;;;;1037914;28;1302;-20
2021/10/31 01:46:51;;;;;;;;;;;;;;;;;;1038191;28;1132;-20
2021/10/31 01:47:33;;;;;;;;;;;;;;;;;;1037414;28;1457;-20
2021/10/31 01:48:18;;;;;;;;;;;;;;;;;;1037147;28;1206;-21
2021/10/31 01:49:02;;;;;;;;;;;;;;;;;;1033716;28;1570;-21
2021/10/31 01:49:41;;;;;;;;;;;;;;;;;;1034568;28;1171;-21
2021/10/31 01:50:35;;;;;;;;;;;;;;;;;;1033565;28;1273;-21
2021/10/31 01:51:13;;;;;;;;;;;;;;;;;;1033686;28;1108;-20
2021/10/31 01:51:46;;;;;;;;;;;;;;;;;;1033971;28;1492;-18
2021/10/31 01:52:19;;;;;;;;;;;;;;;;;;1037586;28;1572;-20
2021/10/31 01:52:52;;;;;;;;;;;;;;;;;;1036608;28;1056;-21
2021/10/31 01:53:29;;;;;;;;;;;;;;;;;;1034729;28;1266;-20
2021/10/31 01:54:01;;;;;;;;;;;;;;;;;;1034862;28;961;-25
2021/10/31 01:54:35;;;;;;;;;;;;;;;;;;1034624;28;886;-22
2021/10/31 01:55:11;;;;;;;;;;;;;;;;;;1034606;28;978;-20
2021/10/31 01:55:44;;;;;;;;;;;;;;;;;;1038298;28;1052;-20
2021/10/31 01:56:19;;;;;;;;;;;;;;;;;;1037588;28;1222;-20
2021/10/31 01:56:51;;;;;;;;;;;;;;;;;;1037935;28;1235;-20
2021/10/31 01:57:23;;;;;;;;;;;;;;;;;;1038097;28;1275;-20
2021/10/31 01:57:55;;;;;;;;;;;;;;;;;;1036797;28;1613;-21
2021/10/31 01:58:31;;;;;;;;;;;;;;;;;;1038034;28;1125;-20
2021/10/31 01:59:36;;;;;;;;;;;;;;;;;;1041666;28;1643;-19
2021/10/31 02:00:12;;;;;;;;;;;;;;;;;;1034047;28;1230;-21
2021/10/31 02:00:44;;;;;;;;;;;;;;;;;;1031321;28;958;-19
2021/10/31 02:01:16;;;;;;;;;;;;;;;;;;1025979;28;977;-21
2021/10/31 02:01:48;;;;;;;;;;;;;;;;;;1025887;28;1166;-20
2021/10/31 02:02:19;;;;;;;;;;;;;;;;;;1026009;28;1050;-19
2021/10/31 02:02:49;;;;;;;;;;;;;;;;;;1025521;28;1309;-20
2021/10/31 02:03:20;;;;;;;;;;;;;;;;;;1026443;28;1580;-20
2021/10/31 02:03:52;;;;;;;;;;;;;;;;;;1037365;28;1436;-19
2021/10/31 02:04:24;;;;;;;;;;;;;;;;;;1037753;28;1283;-24
2021/10/31 02:04:55;;;;;;;;;;;;;;;;;;1038224;28;1210;-21
2021/10/31 02:05:28;;;;;;;;;;;;;;;;;;1037789;28;1558;-19
2021/10/31 02:06:18;;;;;;;;;;;;;;;;;;1037398;28;1597;-21
2021/10/31 02:07:08;;;;;;;;;;;;;;;;;;1038031;28;1395;-19
2021/10/31 02:07:39;;;;;;;;;;;;;;;;;;1037860;28;1010;-21
2021/10/31 02:08:30;;;;;;;;;;;;;;;;;;1037933;28;979;-20
2021/10/31 02:09:01;;;;;;;;;;;;;;;;;;1037974;28;1152;-20
2021/10/31 02:09:32;;;;;;;;;;;;;;;;;;1037869;28;1095;-21
2021/10/31 02:10:02;;;;;;;;;;;;;;;;;;1035368;28;1197;-20
2021/10/31 02:10:34;;;;;;;;;;;;;;;;;;1034637;28;1910;-20
2021/10/31 02:11:06;;;;;;;;;;;;;;;;;;1034697;28;1011;-21
2021/10/31 02:11:38;;;;;;;;;;;;;;;;;;1034691;28;1175;-20
2021/10/31 02:12:12;;;;;;;;;;;;;;;;;;1034247;28;949;-20
2021/10/31 02:12:44;;;;;;;;;;;;;;;;;;1034023;28;1447;-20
2021/10/31 02:13:15;;;;;;;;;;;;;;;;;;1034102;28;1172;-20
2021/10/31 02:13:48;;;;;;;;;;;;;;;;;;1034368;28;1005;-20
2021/10/31 02:14:20;;;;;;;;;;;;;;;;;;1034554;28;984;-20
2021/10/31 02:14:51;;;;;;;;;;;;;;;;;;1033878;28;1123;-23
2021/10/31 02:15:22;;;;;;;;;;;;;;;;;;1033638;28;1644;-21
2021/10/31 02:15:53;;;;;;;;;;;;;;;;;;1034040;28;1096;-22
2021/10/31 02:16:24;;;;;;;;;;;;;;;;;;1029763;28;1170;-21
2021/10/31 02:16:55;;;;;;;;;;;;;;;;;;1029376;28;1342;-20
2021/10/31 02:17:26;;;;;;;;;;;;;;;;;;1033820;28;1179;-20
2021/10/31 02:17:58;;;;;;;;;;;;;;;;;;1034026;28;1225;-19
2021/10/31 02:18:29;;;;;;;;;;;;;;;;;;1037556;28;1061;-19
2021/10/31 02:19:04;;;;;;;;;;;;;;;;;;1046367;28;1265;-20
2021/10/31 02:19:39;;;;;;;;;;;;;;;;;;1037507;28;1155;-20
2021/10/31 02:20:10;;;;;;;;;;;;;;;;;;1038029;28;1057;-23
2021/10/31 02:20:42;;;;;;;;;;;;;;;;;;1035508;28;994;-20
2021/10/31 02:21:17;;;;;;;;;;;;;;;;;;1033799;28;1077;-20
2021/10/31 02:21:50;;;;;;;;;;;;;;;;;;1046252;28;1073;-20
2021/10/31 02:22:26;;;;;;;;;;;;;;;;;;1042082;28;1145;-20
2021/10/31 02:23:00;;;;;;;;;;;;;;;;;;1038751;28;1080;-19
2021/10/31 02:23:31;;;;;;;;;;;;;;;;;;1032172;28;1018;-20
2021/10/31 02:24:02;;;;;;;;;;;;;;;;;;1030132;28;969;-22
2021/10/31 02:24:34;;;;;;;;;;;;;;;;;;1030468;28;1100;-18
2021/10/31 02:25:05;;;;;;;;;;;;;;;;;;1037684;28;1343;-19
2021/10/31 02:25:36;;;;;;;;;;;;;;;;;;1037911;28;1026;-20
2021/10/31 02:26:07;;;;;;;;;;;;;;;;;;1033692;28;1170;-19
2021/10/31 02:26:38;;;;;;;;;;;;;;;;;;1033801;28;989;-20
2021/10/31 02:27:19;;;;;;;;;;;;;;;;;;1025484;28;1028;-20
2021/10/31 02:27:49;;;;;;;;;;;;;;;;;;1019929;28;1387;-20
2021/10/31 02:28:20;;;;;;;;;;;;;;;;;;1025956;28;1026;-21
2021/10/31 02:28:54;;;;;;;;;;;;;;;;;;1027056;28;1075;-20
2021/10/31 02:29:25;;;;;;;;;;;;;;;;;;1037540;28;1184;-20
2021/10/31 02:29:57;;;;;;;;;;;;;;;;;;1030275;28;1347;-20
2021/10/31 02:30:28;;;;;;;;;;;;;;;;;;1033611;28;1979;-21
2021/10/31 02:30:58;;;;;;;;;;;;;;;;;;1033492;28;1114;-19
2021/10/31 02:31:29;;;;;;;;;;;;;;;;;;1030165;28;1025;-20
2021/10/31 02:32:00;;;;;;;;;;;;;;;;;;1033770;28;1068;-21
2021/10/31 02:32:31;;;;;;;;;;;;;;;;;;1038104;28;1018;-20
2021/10/31 02:33:02;;;;;;;;;;;;;;;;;;1037885;28;912;-19
2021/10/31 02:33:32;;;;;;;;;;;;;;;;;;1037513;28;1327;-18
2021/10/31 02:34:05;;;;;;;;;;;;;;;;;;1041763;28;1454;-20
2021/10/31 02:34:36;;;;;;;;;;;;;;;;;;1033390;28;1897;-20
2021/10/31 02:35:09;;;;;;;;;;;;;;;;;;1033281;28;1386;-19
2021/10/31 02:35:40;;;;;;;;;;;;;;;;;;1028843;28;1489;-19
2021/10/31 02:36:11;;;;;;;;;;;;;;;;;;1034274;28;1205;-22
2021/10/31 02:36:41;;;;;;;;;;;;;;;;;;1037355;28;1249;-20
2021/10/31 02:37:11;;;;;;;;;;;;;;;;;;1029590;28;1370;-20
2021/10/31 02:37:42;;;;;;;;;;;;;;;;;;1033772;28;1117;-20
2021/10/31 02:38:12;;;;;;;;;;;;;;;;;;1034821;28;1298;-20
2021/10/31 02:38:44;;;;;;;;;;;;;;;;;;1034298;28;957;-19
2021/10/31 02:39:14;;;;;;;;;;;;;;;;;;1034690;28;864;-19
2021/10/31 02:39:44;;;;;;;;;;;;;;;;;;1034517;28;1005;-20
2021/10/31 02:40:16;;;;;;;;;;;;;;;;;;1034751;28;835;-20
2021/10/31 02:40:47;;;;;;;;;;;;;;;;;;1037835;28;997;-20
2021/10/31 02:41:18;;;;;;;;;;;;;;;;;;1037857;28;1071;-19
2021/10/31 02:41:48;;;;;;;;;;;;;;;;;;1033815;28;1102;-22
2021/10/31 02:42:19;;;;;;;;;;;;;;;;;;1029335;28;1523;-20
2021/10/31 02:42:50;;;;;;;;;;;;;;;;;;1021522;29;1258;-20
2021/10/31 02:43:21;;;;;;;;;;;;;;;;;;1026089;28;993;-19
2021/10/31 02:43:52;;;;;;;;;;;;;;;;;;1029906;28;1191;-19
2021/10/31 02:44:22;;;;;;;;;;;;;;;;;;1042060;28;1015;-21
2021/10/31 02:44:53;;;;;;;;;;;;;;;;;;1041862;28;1109;-20
2021/10/31 02:45:23;;;;;;;;;;;;;;;;;;1033817;28;1042;-20
2021/10/31 02:45:54;;;;;;;;;;;;;;;;;;1042176;28;1052;-20
2021/10/31 02:46:26;;;;;;;;;;;;;;;;;;1038002;28;970;-19
2021/10/31 02:46:57;;;;;;;;;;;;;;;;;;1037969;28;950;-21
2021/10/31 02:47:31;;;;;;;;;;;;;;;;;;1038010;28;1480;-20
2021/10/31 02:48:04;;;;;;;;;;;;;;;;;;1034039;28;1621;-20
2021/10/31 02:48:36;;;;;;;;;;;;;;;;;;1038036;28;1161;-25
2021/10/31 02:49:07;;;;;;;;;;;;;;;;;;1037835;28;1043;-19
2021/10/31 02:49:37;;;;;;;;;;;;;;;;;;1037774;28;1713;-21
2021/10/31 02:50:10;;;;;;;;;;;;;;;;;;1037813;28;1001;-20
2021/10/31 02:50:43;;;;;;;;;;;;;;;;;;1034579;28;1938;-21
2021/10/31 02:51:30;;;;;;;;;;;;;;;;;;1034630;28;1111;-20
2021/10/31 02:52:01;;;;;;;;;;;;;;;;;;1034238;28;1503;-21
2021/10/31 02:52:50;;;;;;;;;;;;;;;;;;1034490;28;1427;-22
2021/10/31 02:53:25;;;;;;;;;;;;;;;;;;1034741;28;1072;-20
2021/10/31 02:54:00;;;;;;;;;;;;;;;;;;1033954;28;1630;-19
2021/10/31 02:54:56;;;;;;;;;;;;;;;;;;1034117;28;1042;-22
2021/10/31 02:55:42;;;;;;;;;;;;;;;;;;1032911;28;1196;-20
2021/10/31 02:56:24;;;;;;;;;;;;;;;;;;1035290;28;1094;-18
2021/10/31 02:57:11;;;;;;;;;;;;;;;;;;1038798;28;1036;-21
2021/10/31 02:57:44;;;;;;;;;;;;;;;;;;1038660;28;1349;-20
2021/10/31 02:58:19;;;;;;;;;;;;;;;;;;1038846;28;954;-20
2021/10/31 02:59:11;;;;;;;;;;;;;;;;;;1035666;28;1380;-20
2021/10/31 02:59:46;;;;;;;;;;;;;;;;;;1035437;28;952;-20
2021/10/31 03:00:17;;;;;;;;;;;;;;;;;;1034905;28;1155;-19
2021/10/31 03:00:49;;;;;;;;;;;;;;;;;;1035459;28;958;-20
2021/10/31 03:01:20;;;;;;;;;;;;;;;;;;1035418;28;942;-21
2021/10/31 03:01:51;;;;;;;;;;;;;;;;;;1038303;28;1166;-19
2021/10/31 03:02:21;;;;;;;;;;;;;;;;;;1038830;28;1041;-20
2021/10/31 03:02:52;;;;;;;;;;;;;;;;;;1038599;28;1261;-20
2021/10/31 03:03:23;;;;;;;;;;;;;;;;;;1034705;28;1032;-21
2021/10/31 03:03:54;;;;;;;;;;;;;;;;;;1034823;28;1114;-19
2021/10/31 03:04:27;;;;;;;;;;;;;;;;;;1034377;28;870;-20
2021/10/31 03:04:57;;;;;;;;;;;;;;;;;;1034964;28;1008;-19
2021/10/31 03:05:28;;;;;;;;;;;;;;;;;;1034691;28;1256;-20
2021/10/31 03:05:59;;;;;;;;;;;;;;;;;;1038777;28;881;-21
2021/10/31 03:06:30;;;;;;;;;;;;;;;;;;1038656;28;1079;-20
2021/10/31 03:07:02;;;;;;;;;;;;;;;;;;1037631;28;1656;-20
2021/10/31 03:07:32;;;;;;;;;;;;;;;;;;1030099;28;1418;-20
2021/10/31 03:08:03;;;;;;;;;;;;;;;;;;1025895;28;1416;-20
2021/10/31 03:08:33;;;;;;;;;;;;;;;;;;1022453;29;1050;-20
2021/10/31 03:09:04;;;;;;;;;;;;;;;;;;1023025;28;1131;-20
2021/10/31 03:09:35;;;;;;;;;;;;;;;;;;1038433;28;1245;-20
2021/10/31 03:10:08;;;;;;;;;;;;;;;;;;1038760;28;1025;-19
2021/10/31 03:10:45;;;;;;;;;;;;;;;;;;1041177;28;1934;-19
2021/10/31 03:11:16;;;;;;;;;;;;;;;;;;1038431;28;1375;-21
2021/10/31 03:11:47;;;;;;;;;;;;;;;;;;1037277;28;1072;-20
2021/10/31 03:12:17;;;;;;;;;;;;;;;;;;1034872;28;1572;-20
2021/10/31 03:12:48;;;;;;;;;;;;;;;;;;1038446;28;1157;-19
2021/10/31 03:13:19;;;;;;;;;;;;;;;;;;1038771;28;1072;-21
2021/10/31 03:13:49;;;;;;;;;;;;;;;;;;1034649;28;1603;-21
2021/10/31 03:14:20;;;;;;;;;;;;;;;;;;1042909;28;1048;-20
2021/10/31 03:14:50;;;;;;;;;;;;;;;;;;1042239;28;1423;-21
2021/10/31 03:15:21;;;;;;;;;;;;;;;;;;1042558;28;1133;-20
2021/10/31 03:15:52;;;;;;;;;;;;;;;;;;1038684;28;1229;-20
2021/10/31 03:16:23;;;;;;;;;;;;;;;;;;1033518;28;1589;-21
2021/10/31 03:16:53;;;;;;;;;;;;;;;;;;1034452;28;1185;-20
2021/10/31 03:17:23;;;;;;;;;;;;;;;;;;1030403;28;1158;-20
2021/10/31 03:17:54;;;;;;;;;;;;;;;;;;1030151;28;1172;-20
2021/10/31 03:18:24;;;;;;;;;;;;;;;;;;1026598;28;1026;-21
2021/10/31 03:18:55;;;;;;;;;;;;;;;;;;1025941;28;1441;-18
2021/10/31 03:19:26;;;;;;;;;;;;;;;;;;1034015;28;1181;-20
2021/10/31 03:19:56;;;;;;;;;;;;;;;;;;1034807;28;1119;-22
2021/10/31 03:20:27;;;;;;;;;;;;;;;;;;1038354;28;989;-19
2021/10/31 03:20:57;;;;;;;;;;;;;;;;;;1038591;28;1040;-21
2021/10/31 03:21:28;;;;;;;;;;;;;;;;;;1034016;28;1194;-20
2021/10/31 03:21:59;;;;;;;;;;;;;;;;;;1034540;28;964;-20
2021/10/31 03:22:31;;;;;;;;;;;;;;;;;;1038534;28;1098;-21
2021/10/31 03:23:01;;;;;;;;;;;;;;;;;;1038077;28;1481;-20
2021/10/31 03:23:32;;;;;;;;;;;;;;;;;;1034598;28;997;-20
2021/10/31 03:24:02;;;;;;;;;;;;;;;;;;1034572;28;1406;-18
2021/10/31 03:24:33;;;;;;;;;;;;;;;;;;1038856;28;1057;-19
2021/10/31 03:25:03;;;;;;;;;;;;;;;;;;1039009;28;1208;-19
2021/10/31 03:25:34;;;;;;;;;;;;;;;;;;1034936;28;1175;-21
2021/10/31 03:26:04;;;;;;;;;;;;;;;;;;1038526;28;1131;-20
2021/10/31 03:26:35;;;;;;;;;;;;;;;;;;1038433;28;1235;-21
2021/10/31 03:27:05;;;;;;;;;;;;;;;;;;1038429;28;1128;-20
2021/10/31 03:27:39;;;;;;;;;;;;;;;;;;1038576;28;1073;-20
2021/10/31 03:28:09;;;;;;;;;;;;;;;;;;1038765;28;1152;-21
2021/10/31 03:28:40;;;;;;;;;;;;;;;;;;1038687;28;1123;-20
2021/10/31 03:29:10;;;;;;;;;;;;;;;;;;1042325;28;960;-20
2021/10/31 03:29:41;;;;;;;;;;;;;;;;;;1038472;28;941;-20
2021/10/31 03:30:11;;;;;;;;;;;;;;;;;;1038694;28;1008;-20
2021/10/31 03:30:42;;;;;;;;;;;;;;;;;;1038648;28;2003;-21
2021/10/31 03:31:12;;;;;;;;;;;;;;;;;;1035379;28;938;-20
2021/10/31 03:31:45;;;;;;;;;;;;;;;;;;1034904;28;1352;-19
2021/10/31 03:32:15;;;;;;;;;;;;;;;;;;1034983;28;1767;-20
2021/10/31 03:32:46;;;;;;;;;;;;;;;;;;1035289;28;1310;-20
2021/10/31 03:33:17;;;;;;;;;;;;;;;;;;1035423;28;976;-22
2021/10/31 03:33:47;;;;;;;;;;;;;;;;;;1035174;28;969;-22
2021/10/31 03:34:21;;;;;;;;;;;;;;;;;;1038789;28;995;-19
2021/10/31 03:34:51;;;;;;;;;;;;;;;;;;1038286;28;1605;-21
2021/10/31 03:35:23;;;;;;;;;;;;;;;;;;1042480;28;1085;-20
2021/10/31 03:35:53;;;;;;;;;;;;;;;;;;1042796;28;1044;-20
2021/10/31 03:36:24;;;;;;;;;;;;;;;;;;1038504;28;1000;-20
2021/10/31 03:36:54;;;;;;;;;;;;;;;;;;1038617;28;842;-19
2021/10/31 03:37:24;;;;;;;;;;;;;;;;;;1034387;28;1189;-19
2021/10/31 03:37:55;;;;;;;;;;;;;;;;;;1033866;28;1674;-20
2021/10/31 03:38:26;;;;;;;;;;;;;;;;;;1042721;28;1079;-20
2021/10/31 03:38:56;;;;;;;;;;;;;;;;;;1041926;28;1397;-21
2021/10/31 03:39:27;;;;;;;;;;;;;;;;;;1042527;28;1169;-21
2021/10/31 03:39:57;;;;;;;;;;;;;;;;;;1038414;28;1344;-20
2021/10/31 03:40:28;;;;;;;;;;;;;;;;;;1034917;28;1291;-20
2021/10/31 03:40:58;;;;;;;;;;;;;;;;;;1038567;28;1170;-21
2021/10/31 03:41:29;;;;;;;;;;;;;;;;;;1038292;28;1451;-19
2021/10/31 03:41:59;;;;;;;;;;;;;;;;;;1042334;28;1243;-18
2021/10/31 03:42:30;;;;;;;;;;;;;;;;;;1038459;28;1219;-21
2021/10/31 03:43:01;;;;;;;;;;;;;;;;;;1041897;28;1581;-20
2021/10/31 03:43:31;;;;;;;;;;;;;;;;;;1042724;28;1008;-20
2021/10/31 03:44:03;;;;;;;;;;;;;;;;;;1034351;28;1228;-20
2021/10/31 03:44:37;;;;;;;;;;;;;;;;;;1042490;28;913;-18
2021/10/31 03:45:10;;;;;;;;;;;;;;;;;;1038514;28;1013;-20
2021/10/31 03:45:41;;;;;;;;;;;;;;;;;;1038614;28;953;-19
2021/10/31 03:46:12;;;;;;;;;;;;;;;;;;1029254;28;1062;-20
2021/10/31 03:46:43;;;;;;;;;;;;;;;;;;1029914;28;1524;-19
2021/10/31 03:47:14;;;;;;;;;;;;;;;;;;1029789;28;1148;-19
2021/10/31 03:47:48;;;;;;;;;;;;;;;;;;1026318;28;930;-20
2021/10/31 03:48:18;;;;;;;;;;;;;;;;;;1027559;28;1059;-20
2021/10/31 03:48:49;;;;;;;;;;;;;;;;;;1043126;28;1321;-21
2021/10/31 03:49:19;;;;;;;;;;;;;;;;;;1046477;28;1617;-20
2021/10/31 03:49:50;;;;;;;;;;;;;;;;;;1046649;28;1032;-22
2021/10/31 03:50:21;;;;;;;;;;;;;;;;;;1046724;28;905;-20
2021/10/31 03:50:52;;;;;;;;;;;;;;;;;;1037771;28;1910;-20
2021/10/31 03:51:23;;;;;;;;;;;;;;;;;;1038372;28;1276;-19
2021/10/31 03:51:53;;;;;;;;;;;;;;;;;;1042714;28;1091;-20
2021/10/31 03:52:23;;;;;;;;;;;;;;;;;;1042349;28;1552;-21
2021/10/31 03:52:55;;;;;;;;;;;;;;;;;;1042543;28;1054;-18